createdAt,value
2023-08-18T00:01:44.394Z,10.53
2023-08-18T00:04:31.247Z,9.97
2023-08-18T00:07:18.225Z,10.67
2023-08-18T00:10:05.478Z,10.83
2023-08-18T00:12:52.312Z,11.47
2023-08-18T00:15:38.901Z,10.00
2023-08-18T00:18:26.839Z,10.70
2023-08-18T00:21:14.183Z,11.40
2023-08-18T00:24:00.847Z,11.10
2023-08-18T00:26:47.535Z,11.37
2023-08-18T00:29:34.118Z,11.30
2023-08-18T00:32:20.754Z,11.70
2023-08-18T00:35:09.579Z,11.37
2023-08-18T00:37:56.264Z,12.47
2023-08-18T00:40:42.818Z,13.10
2023-08-18T00:43:29.479Z,12.77
2023-08-18T00:46:17.629Z,12.60
2023-08-18T00:49:06.994Z,12.20
2023-08-18T00:51:55.049Z,12.17
2023-08-18T00:54:44.014Z,11.40
2023-08-18T00:57:34.252Z,12.23
2023-08-18T01:00:24.384Z,13.60
2023-08-18T01:03:11.971Z,13.80
2023-08-18T01:06:00.032Z,13.33
2023-08-18T01:08:48.480Z,13.77
2023-08-18T01:11:39.668Z,11.70
2023-08-18T01:14:34.960Z,11.73
2023-08-18T01:17:28.770Z,12.23
2023-08-18T01:20:16.232Z,10.87
2023-08-18T01:23:05.811Z,10.90
2023-08-18T01:25:52.651Z,11.77
2023-08-18T01:28:39.488Z,10.77
2023-08-18T01:31:33.372Z,10.00
2023-08-18T01:34:22.094Z,10.33
2023-08-18T01:37:08.801Z,9.93
2023-08-18T01:39:59.171Z,10.57
2023-08-18T01:42:47.291Z,10.43
2023-08-18T01:45:36.743Z,10.90
2023-08-18T01:48:23.755Z,10.53
2023-08-18T01:51:10.311Z,9.57
2023-08-18T01:53:56.837Z,10.43
2023-08-18T01:56:44.865Z,10.10
2023-08-18T01:59:31.870Z,9.73
2023-08-18T02:02:18.748Z,11.40
2023-08-18T02:05:06.061Z,10.10
2023-08-18T02:07:52.967Z,10.67
2023-08-18T02:10:39.488Z,9.87
2023-08-18T02:13:27.439Z,9.33
2023-08-18T02:16:14.855Z,9.07
2023-08-18T02:19:01.453Z,9.20
2023-08-18T02:21:48.902Z,8.90
2023-08-18T02:24:35.646Z,8.10
2023-08-18T02:27:22.190Z,7.87
2023-08-18T02:30:11.193Z,7.97
2023-08-18T02:32:58.077Z,7.83
2023-08-18T02:35:46.693Z,8.13
2023-08-18T02:38:36.823Z,7.30
2023-08-18T02:41:25.126Z,7.17
2023-08-18T02:44:11.645Z,7.57
2023-08-18T02:46:59.848Z,7.43
2023-08-18T02:49:48.687Z,7.00
2023-08-18T02:52:35.542Z,7.00
2023-08-18T02:55:22.294Z,6.53
2023-08-18T02:58:08.933Z,6.57
2023-08-18T03:00:55.594Z,7.20
2023-08-18T03:03:43.654Z,7.90
2023-08-18T03:06:30.606Z,6.70
2023-08-18T03:09:17.976Z,6.60
2023-08-18T03:12:05.011Z,6.67
2023-08-18T03:14:53.267Z,6.57
2023-08-18T03:17:40.257Z,6.53
2023-08-18T03:20:28.057Z,6.57
2023-08-18T03:23:16.262Z,6.10
2023-08-18T03:26:04.241Z,6.07
2023-08-18T03:28:53.715Z,5.93
2023-08-18T03:31:40.574Z,5.87
2023-08-18T03:34:27.168Z,5.90
2023-08-18T03:37:15.211Z,6.50
2023-08-18T03:40:04.423Z,6.13
2023-08-18T03:42:51.838Z,5.47
2023-08-18T03:45:39.901Z,5.33
2023-08-18T03:48:26.413Z,5.80
2023-08-18T03:51:13.086Z,5.53
2023-08-18T03:54:01.031Z,6.00
2023-08-18T03:56:47.930Z,6.43
2023-08-18T03:59:34.708Z,6.90
2023-08-18T04:02:21.503Z,6.60
2023-08-18T04:05:08.534Z,7.17
2023-08-18T04:07:55.661Z,6.83
2023-08-18T04:10:43.532Z,7.07
2023-08-18T04:13:30.337Z,7.30
2023-08-18T04:16:18.062Z,7.90
2023-08-18T04:19:05.636Z,7.77
2023-08-18T04:21:52.056Z,7.33
2023-08-18T04:24:38.833Z,8.00
2023-08-18T04:27:26.750Z,8.37
2023-08-18T04:30:14.710Z,8.27
2023-08-18T04:33:01.464Z,8.70
2023-08-18T04:35:48.047Z,8.77
2023-08-18T04:38:34.762Z,8.47
2023-08-18T04:41:21.341Z,9.07
2023-08-18T04:44:09.423Z,8.40
2023-08-18T04:46:56.506Z,8.20
2023-08-18T04:49:43.341Z,9.23
2023-08-18T04:52:30.218Z,9.37
2023-08-18T04:55:17.084Z,9.07
2023-08-18T04:58:04.793Z,8.73
2023-08-18T05:00:54.772Z,9.10
2023-08-18T05:03:41.625Z,9.13
2023-08-18T05:06:28.693Z,8.67
2023-08-18T05:09:15.375Z,8.53
2023-08-18T05:12:03.053Z,9.97
2023-08-18T05:14:49.708Z,9.00
2023-08-18T05:17:37.678Z,8.90
2023-08-18T05:20:24.451Z,10.20
2023-08-18T05:23:12.044Z,9.47
2023-08-18T05:26:00.696Z,9.30
2023-08-18T05:28:48.711Z,10.07
2023-08-18T05:31:37.950Z,8.93
2023-08-18T05:34:26.585Z,10.17
2023-08-18T05:37:13.232Z,9.43
2023-08-18T05:39:59.602Z,9.87
2023-08-18T05:42:46.263Z,9.87
2023-08-18T05:45:32.856Z,9.63
2023-08-18T05:48:19.377Z,11.03
2023-08-18T05:51:07.512Z,10.73
2023-08-18T05:53:54.126Z,10.77
2023-08-18T05:56:40.648Z,12.10
2023-08-18T05:59:27.210Z,12.80
2023-08-18T06:02:13.916Z,14.00
2023-08-18T06:05:00.558Z,14.07
2023-08-18T06:07:48.548Z,14.83
2023-08-18T06:10:35.495Z,15.57
2023-08-18T06:13:22.033Z,16.77
2023-08-18T06:16:08.886Z,16.87
2023-08-18T06:18:55.399Z,16.20
2023-08-18T06:21:42.055Z,17.90
2023-08-18T06:24:29.866Z,18.47
2023-08-18T06:27:16.700Z,17.60
2023-08-18T06:30:03.512Z,18.90
2023-08-18T06:32:50.237Z,19.27
2023-08-18T06:35:37.255Z,19.23
2023-08-18T06:38:23.727Z,19.77
2023-08-18T06:41:11.925Z,18.37
2023-08-18T06:43:58.766Z,20.33
2023-08-18T06:46:45.419Z,20.77
2023-08-18T06:49:32.016Z,21.80
2023-08-18T06:52:18.665Z,21.80
2023-08-18T06:55:06.367Z,23.10
2023-08-18T06:57:55.393Z,19.80
2023-08-18T07:00:42.266Z,21.30
2023-08-18T07:03:28.950Z,21.63
2023-08-18T07:06:16.136Z,20.77
2023-08-18T07:09:03.809Z,21.90
2023-08-18T07:11:50.834Z,20.03
2023-08-18T07:14:38.933Z,19.57
2023-08-18T07:17:25.707Z,19.30
2023-08-18T07:20:13.930Z,19.17
2023-08-18T07:23:00.726Z,19.97
2023-08-18T07:25:47.261Z,19.07
2023-08-18T07:28:33.850Z,17.93
2023-08-18T07:31:21.905Z,19.47
2023-08-18T07:34:08.807Z,19.70
2023-08-18T07:36:55.678Z,18.03
2023-08-18T07:39:42.654Z,17.57
2023-08-18T07:42:29.908Z,16.37
2023-08-18T07:45:17.163Z,17.73
2023-08-18T07:48:05.662Z,16.53
2023-08-18T07:50:52.390Z,16.50
2023-08-18T07:53:38.986Z,16.20
2023-08-18T07:56:26.364Z,15.33
2023-08-18T07:59:13.294Z,15.93
2023-08-18T08:02:00.248Z,16.67
2023-08-18T08:04:48.523Z,15.63
2023-08-18T08:07:35.245Z,15.67
2023-08-18T08:10:22.198Z,17.00
2023-08-18T08:13:09.039Z,15.63
2023-08-18T08:15:55.703Z,14.60
2023-08-18T08:18:42.335Z,15.10
2023-08-18T08:21:30.288Z,14.33
2023-08-18T08:24:17.140Z,14.23
2023-08-18T08:27:03.863Z,14.20
2023-08-18T08:29:52.999Z,14.97
2023-08-18T08:32:39.627Z,14.13
2023-08-18T08:35:28.563Z,14.13
2023-08-18T08:38:18.146Z,14.40
2023-08-18T08:41:04.783Z,14.70
2023-08-18T08:43:51.365Z,14.27
2023-08-18T08:46:39.236Z,13.00
2023-08-18T08:49:29.381Z,13.67
2023-08-18T08:52:17.370Z,13.37
2023-08-18T08:55:07.654Z,12.40
2023-08-18T08:57:54.634Z,13.93
2023-08-18T09:00:41.414Z,12.60
2023-08-18T09:03:29.540Z,11.70
2023-08-18T09:06:16.287Z,12.40
2023-08-18T09:09:03.596Z,12.53
2023-08-18T09:11:52.149Z,12.53
2023-08-18T09:14:40.914Z,10.37
2023-08-18T09:17:32.903Z,12.00
2023-08-18T09:20:20.963Z,12.17
2023-08-18T09:23:07.855Z,11.43
2023-08-18T09:25:54.730Z,11.63
2023-08-18T09:28:43.001Z,11.43
2023-08-18T09:31:30.573Z,11.33
2023-08-18T09:34:24.477Z,10.77
2023-08-18T09:37:11.562Z,10.87
2023-08-18T09:39:58.417Z,11.63
2023-08-18T09:42:44.897Z,11.33
2023-08-18T09:45:33.965Z,11.00
2023-08-18T09:48:23.292Z,10.20
2023-08-18T09:51:12.010Z,10.97
2023-08-18T09:54:01.509Z,9.70
2023-08-18T09:56:50.751Z,10.57
2023-08-18T09:59:43.529Z,10.10
2023-08-18T10:02:37.701Z,10.47
2023-08-18T10:05:25.582Z,9.77
2023-08-18T10:08:12.756Z,11.87
2023-08-18T10:10:59.686Z,11.03
2023-08-18T10:13:47.778Z,9.97
2023-08-18T10:16:35.997Z,10.27
2023-08-18T10:19:49.301Z,9.03
2023-08-18T10:22:37.175Z,9.07
2023-08-18T10:25:29.359Z,9.23
2023-08-18T10:28:20.297Z,9.80
2023-08-18T10:31:10.568Z,8.73
2023-08-18T10:34:02.179Z,9.60
2023-08-18T10:36:51.536Z,9.70
2023-08-18T10:39:41.744Z,9.67
2023-08-18T10:42:30.097Z,9.57
2023-08-18T10:45:28.894Z,10.33
2023-08-18T10:48:15.827Z,9.07
2023-08-18T10:51:02.663Z,9.50
2023-08-18T10:53:52.073Z,9.20
2023-08-18T10:56:38.855Z,9.87
2023-08-18T10:59:25.578Z,9.77
2023-08-18T11:02:12.244Z,9.57
2023-08-18T11:04:59.070Z,9.40
2023-08-18T11:07:46.218Z,9.60
2023-08-18T11:10:34.980Z,10.87
2023-08-18T11:13:26.452Z,10.43
2023-08-18T11:16:13.424Z,9.23
2023-08-18T11:19:00.026Z,9.80
2023-08-18T11:21:46.757Z,9.77
2023-08-18T11:24:33.347Z,10.30
2023-08-18T11:27:21.626Z,10.40
2023-08-18T11:30:11.577Z,9.40
2023-08-18T11:32:58.515Z,9.87
2023-08-18T11:35:45.889Z,9.67
2023-08-18T11:38:32.903Z,9.97
2023-08-18T11:41:19.663Z,9.88
2023-08-18T11:44:09.182Z,10.57
2023-08-18T11:46:55.889Z,10.75
2023-08-18T11:49:42.511Z,10.35
2023-08-18T11:52:42.169Z,9.68
2023-08-18T11:55:34.014Z,10.07
2023-08-18T11:58:24.710Z,9.52
2023-08-18T12:01:12.907Z,9.32
2023-08-18T12:03:59.626Z,10.15
2023-08-18T12:06:46.138Z,9.48
2023-08-18T12:09:32.696Z,9.65
2023-08-18T12:12:19.367Z,8.93
2023-08-18T12:15:06.900Z,9.18
2023-08-18T12:17:55.396Z,9.30
2023-08-18T12:20:43.288Z,9.10
2023-08-18T12:23:29.984Z,9.30
2023-08-18T12:26:18.749Z,9.80
2023-08-18T12:29:05.919Z,8.95
2023-08-18T12:31:52.429Z,8.63
2023-08-18T12:34:40.383Z,7.47
2023-08-18T12:37:29.769Z,7.50
2023-08-18T12:40:16.937Z,7.13
2023-08-18T12:43:03.928Z,6.53
2023-08-18T12:45:50.934Z,6.53
2023-08-18T12:48:37.859Z,6.65
2023-08-18T12:51:25.951Z,7.15
2023-08-18T12:54:12.546Z,7.10
2023-08-18T12:56:59.126Z,6.90
2023-08-18T12:59:45.787Z,6.30
2023-08-18T13:02:32.691Z,6.95
2023-08-18T13:05:19.634Z,5.93
2023-08-18T13:08:08.330Z,6.18
2023-08-18T13:10:55.117Z,6.07
2023-08-18T13:13:41.869Z,6.25
2023-08-18T13:16:33.523Z,6.57
2023-08-18T13:19:21.632Z,6.13
2023-08-18T13:22:08.483Z,5.85
2023-08-18T13:24:56.798Z,6.13
2023-08-18T13:27:44.491Z,5.97
2023-08-18T13:30:31.622Z,6.10
2023-08-18T13:33:18.520Z,5.63
2023-08-18T13:36:05.686Z,5.97
2023-08-18T13:38:52.409Z,5.97
2023-08-18T13:41:40.567Z,5.65
2023-08-18T13:44:27.267Z,5.85
2023-08-18T13:47:13.787Z,5.68
2023-08-18T13:50:00.450Z,6.13
2023-08-18T13:52:47.105Z,5.80
2023-08-18T13:55:33.658Z,5.88
2023-08-18T13:58:22.014Z,5.90
2023-08-18T14:01:08.937Z,6.13
2023-08-18T14:03:55.853Z,5.65
2023-08-18T14:06:44.290Z,6.20
2023-08-18T14:09:33.694Z,5.55
2023-08-18T14:12:20.670Z,6.00
2023-08-18T14:15:09.703Z,6.15
2023-08-18T14:17:56.406Z,6.25
2023-08-18T14:20:42.950Z,6.03
2023-08-18T14:23:29.974Z,5.35
2023-08-18T14:26:16.455Z,6.10
2023-08-18T14:29:03.617Z,5.88
2023-08-18T14:31:51.592Z,6.03
2023-08-18T14:34:38.765Z,6.63
2023-08-18T14:37:26.543Z,5.93
2023-08-18T14:40:13.677Z,6.53
2023-08-18T14:43:14.696Z,6.07
2023-08-18T14:46:05.535Z,5.95
2023-08-18T14:48:53.706Z,5.88
2023-08-18T14:51:40.558Z,6.00
2023-08-18T14:54:27.226Z,5.70
2023-08-18T14:57:15.019Z,5.63
2023-08-18T15:00:02.271Z,5.75
2023-08-18T15:02:48.955Z,6.22
2023-08-18T15:05:37.373Z,5.80
2023-08-18T15:08:23.960Z,5.95
2023-08-18T15:11:10.673Z,5.38
2023-08-18T15:13:57.299Z,6.03
2023-08-18T15:16:44.100Z,6.10
2023-08-18T15:19:31.211Z,6.28
2023-08-18T15:22:19.413Z,5.88
2023-08-18T15:25:07.990Z,6.30
2023-08-18T15:27:55.192Z,6.30
2023-08-18T15:30:42.237Z,6.10
2023-08-18T15:33:28.829Z,6.10
2023-08-18T15:36:15.527Z,6.03
2023-08-18T15:39:05.544Z,6.35
2023-08-18T15:41:52.308Z,6.40
2023-08-18T15:44:38.661Z,6.15
2023-08-18T15:47:25.354Z,6.45
2023-08-18T15:50:12.580Z,6.32
2023-08-18T15:52:59.372Z,6.38
2023-08-18T15:55:48.784Z,5.30
2023-08-18T15:58:36.679Z,6.00
2023-08-18T16:01:24.036Z,5.70
2023-08-18T16:04:10.640Z,6.00
2023-08-18T16:06:57.268Z,6.10
2023-08-18T16:09:44.111Z,6.07
2023-08-18T16:12:32.010Z,5.80
2023-08-18T16:18:09.583Z,5.97
2023-08-18T16:20:57.290Z,5.57
2023-08-18T16:23:44.179Z,5.70
2023-08-18T16:26:30.918Z,5.40
2023-08-18T16:29:19.009Z,5.40
2023-08-18T16:32:06.424Z,5.60
2023-08-18T16:34:55.335Z,5.40
2023-08-18T16:37:46.707Z,5.35
2023-08-18T16:40:36.246Z,5.72
2023-08-18T16:43:22.780Z,5.82
2023-08-18T16:46:10.767Z,5.32
2023-08-18T16:48:57.565Z,5.15
2023-08-18T16:51:44.110Z,5.38
2023-08-18T16:54:31.424Z,4.95
2023-08-18T16:57:20.064Z,5.40
2023-08-18T17:00:11.192Z,4.70
2023-08-18T17:02:59.229Z,5.10
2023-08-18T17:05:47.421Z,5.63
2023-08-18T17:08:34.214Z,4.68
2023-08-18T17:11:20.647Z,4.88
2023-08-18T17:14:07.276Z,5.13
2023-08-18T17:16:53.822Z,5.10
2023-08-18T17:19:41.648Z,5.30
2023-08-18T17:22:28.993Z,4.57
2023-08-18T17:25:15.830Z,5.18
2023-08-18T17:28:03.007Z,5.32
2023-08-18T17:30:50.098Z,5.05
2023-08-18T17:33:38.091Z,6.40
2023-08-18T17:36:26.296Z,7.13
2023-08-18T17:39:12.985Z,6.68
2023-08-18T17:42:01.061Z,6.78
2023-08-18T17:44:47.705Z,6.97
2023-08-18T17:47:34.545Z,7.78
2023-08-18T17:50:22.075Z,7.13
2023-08-18T17:53:10.287Z,7.78
2023-08-18T17:55:57.066Z,7.03
2023-08-18T17:58:43.663Z,7.25
2023-08-18T18:01:31.641Z,7.00
2023-08-18T18:04:18.825Z,7.00
2023-08-18T18:07:06.419Z,7.45
2023-08-18T18:09:54.459Z,7.82
2023-08-18T18:12:41.470Z,8.18
2023-08-18T18:15:28.192Z,7.85
2023-08-18T18:18:16.043Z,8.07
2023-08-18T18:21:03.204Z,8.40
2023-08-18T18:23:49.720Z,7.70
2023-08-18T18:26:37.770Z,8.05
2023-08-18T18:29:24.787Z,7.93
2023-08-18T18:32:11.906Z,7.32
2023-08-18T18:34:58.428Z,7.75
2023-08-18T18:37:45.012Z,7.55
2023-08-18T18:40:31.811Z,8.25
2023-08-18T18:43:19.563Z,8.45
2023-08-18T18:46:06.317Z,8.13
2023-08-18T18:48:54.775Z,7.75
2023-08-18T18:51:41.624Z,7.85
2023-08-18T18:54:28.280Z,8.30
2023-08-18T18:57:15.040Z,8.10
2023-08-18T19:00:03.864Z,7.47
2023-08-18T19:02:50.548Z,8.15
2023-08-18T19:05:40.922Z,8.65
2023-08-18T19:08:27.655Z,8.02
2023-08-18T19:11:16.318Z,8.30
2023-08-18T19:14:04.011Z,8.35
2023-08-18T19:16:52.243Z,8.02
2023-08-18T19:19:39.117Z,8.50
2023-08-18T19:22:25.582Z,7.95
2023-08-18T19:25:12.282Z,8.70
2023-08-18T19:27:59.302Z,7.90
2023-08-18T19:30:46.270Z,8.02
2023-08-18T19:33:34.500Z,8.40
2023-08-18T19:36:21.548Z,9.02
2023-08-18T19:39:08.292Z,8.07
2023-08-18T19:41:54.904Z,8.63
2023-08-18T19:44:41.601Z,8.93
2023-08-18T19:47:29.459Z,8.27
2023-08-18T19:50:17.504Z,8.35
2023-08-18T19:53:04.809Z,9.10
2023-08-18T19:55:52.386Z,8.57
2023-08-18T19:58:39.183Z,8.25
2023-08-18T20:01:25.821Z,8.55
2023-08-18T20:04:12.771Z,8.80
2023-08-18T20:07:02.628Z,8.23
2023-08-18T20:09:49.844Z,8.65
2023-08-18T20:12:36.630Z,8.48
2023-08-18T20:15:25.032Z,8.90
2023-08-18T20:18:11.621Z,8.55
2023-08-18T20:20:58.151Z,8.98
2023-08-18T20:23:46.049Z,8.82
2023-08-18T20:26:33.047Z,8.77
2023-08-18T20:29:19.549Z,9.80
2023-08-18T20:32:07.150Z,9.45
2023-08-18T20:34:54.215Z,8.77
2023-08-18T20:37:43.144Z,8.95
2023-08-18T20:40:31.320Z,8.65
2023-08-18T20:43:19.409Z,7.85
2023-08-18T20:46:07.743Z,8.35
2023-08-18T20:48:54.611Z,8.43
2023-08-18T20:51:41.136Z,9.20
2023-08-18T20:54:27.722Z,8.48
2023-08-18T20:57:15.641Z,9.15
2023-08-18T21:00:02.538Z,9.10
2023-08-18T21:02:49.486Z,8.70
2023-08-18T21:05:36.433Z,9.20
2023-08-18T21:08:23.641Z,9.52
2023-08-18T21:11:10.597Z,9.50
2023-08-18T21:13:58.608Z,9.10
2023-08-18T21:16:45.197Z,8.85
2023-08-18T21:19:31.773Z,9.13
2023-08-18T21:22:18.307Z,9.23
2023-08-18T21:25:05.187Z,9.10
2023-08-18T21:27:51.715Z,9.90
2023-08-18T21:30:39.695Z,9.15
2023-08-18T21:33:26.907Z,9.45
2023-08-18T21:36:13.585Z,9.52
2023-08-18T21:39:05.959Z,9.23
2023-08-18T21:41:52.412Z,9.57
2023-08-18T21:44:39.064Z,9.68
2023-08-18T21:47:27.003Z,9.48
2023-08-18T21:50:14.343Z,9.23
2023-08-18T21:53:01.070Z,9.13
2023-08-18T21:55:47.433Z,9.65
2023-08-18T21:58:34.141Z,8.93
2023-08-18T22:01:21.247Z,9.95
2023-08-18T22:04:09.163Z,9.77
2023-08-18T22:06:55.722Z,10.43
2023-08-18T22:09:42.406Z,10.70
2023-08-18T22:12:29.260Z,9.93
2023-08-18T22:15:16.233Z,10.25
2023-08-18T22:18:04.311Z,10.10
2023-08-18T22:20:53.022Z,9.93
2023-08-18T22:23:39.853Z,9.35
2023-08-18T22:26:26.578Z,9.95
2023-08-18T22:29:13.175Z,10.45
2023-08-18T22:31:59.675Z,10.50
2023-08-18T22:34:46.092Z,10.17
2023-08-18T22:37:34.117Z,9.70
2023-08-18T22:40:20.892Z,9.87
2023-08-18T22:43:07.441Z,10.75
2023-08-18T22:45:54.195Z,9.27
2023-08-18T22:48:41.065Z,10.27
2023-08-18T22:51:27.625Z,10.40
2023-08-18T22:54:15.676Z,9.67
2023-08-18T22:57:03.037Z,10.23
2023-08-18T22:59:49.622Z,9.90
2023-08-18T23:02:36.188Z,10.37
2023-08-18T23:05:22.896Z,10.07
2023-08-18T23:08:09.358Z,10.30
2023-08-18T23:11:03.216Z,10.30
2023-08-18T23:13:49.555Z,10.97
2023-08-18T23:16:36.087Z,11.37
2023-08-18T23:19:23.033Z,11.23
2023-08-18T23:22:09.605Z,10.33
2023-08-18T23:24:56.648Z,9.93
2023-08-18T23:27:44.979Z,10.90
2023-08-18T23:30:31.767Z,11.17
2023-08-18T23:33:18.443Z,10.20
2023-08-18T23:36:05.819Z,10.90
2023-08-18T23:38:52.312Z,10.03
2023-08-18T23:41:38.786Z,10.27
2023-08-18T23:44:26.801Z,10.20
2023-08-18T23:47:13.706Z,10.03
2023-08-18T23:50:00.362Z,10.53
2023-08-18T23:52:46.804Z,11.00
2023-08-18T23:55:33.309Z,10.33
2023-08-18T23:58:19.781Z,11.27
